Index of /junk/2

[ICO]NameLast modifiedSizeDescription

[PARENTDIR]Parent Directory  -  
[IMG]2012-07-04-Cadence-150x150.png2021-02-09 10:20 15K 
[IMG]2012-07-04-Cadence-300x135.png2021-02-09 10:20 31K 
[IMG]2012-07-04-Cadence.png2021-02-09 10:20 38K 
[IMG]2012-07-04-heart-rate-150x150.png2021-02-09 10:20 16K 
[IMG]2012-07-04-heart-rate-300x135.png2021-02-09 10:20 29K 
[IMG]2012-07-04-heart-rate.png2021-02-09 10:20 39K 
[IMG]2012-07-04-pace-150x150.png2021-02-09 10:20 19K 
[IMG]2012-07-04-pace-300x134.png2021-02-09 10:20 18K 
[IMG]2012-07-04-pace.png2021-02-09 10:20 41K 
[IMG]Puls-Milen-under-timmen-2011-nov-150x150.png2021-02-09 10:20 16K 
[IMG]Puls-Milen-under-timmen-2011-nov-300x132.png2021-02-09 10:20 9.4K 
[IMG]Puls-Milen-under-timmen-2011-nov.png2021-02-09 10:20 30K 
[IMG]Puls-Milen-under-timmen-2012-jul-150x150.png2021-02-09 10:20 12K 
[IMG]Puls-Milen-under-timmen-2012-jul-300x133.png2021-02-09 10:20 24K 
[IMG]Puls-Milen-under-timmen-2012-jul.png2021-02-09 10:20 32K 
[IMG]Screen-Shot-2012-07-03-at-1.39.40-PM-150x150.png2021-02-09 10:20 12K 
[IMG]Screen-Shot-2012-07-03-at-1.39.40-PM-300x130.png2021-02-09 10:20 24K 
[IMG]Screen-Shot-2012-07-03-at-1.39.40-PM.png2021-02-09 10:20 38K 
[IMG]Screen-Shot-2012-07-03-at-1.40.55-PM-1-150x150.png2021-02-09 10:20 16K 
[IMG]Screen-Shot-2012-07-03-at-1.40.55-PM-1-300x132.png2021-02-09 10:20 11K 
[IMG]Screen-Shot-2012-07-03-at-1.40.55-PM-1.png2021-02-09 10:20 37K 
[IMG]Screen-Shot-2013-08-28-at-8.20.31-AM-150x150.png2021-02-09 10:20 45K 
[IMG]Screen-Shot-2013-08-28-at-8.20.31-AM-300x200.png2021-02-09 10:20 108K 
[IMG]Screen-Shot-2013-08-28-at-8.20.31-AM.png2021-02-09 10:20 261K 
[IMG]kadens2012-150x150.png2021-02-09 10:20 15K 
[IMG]kadens2012-300x199.png2021-02-09 10:20 40K 
[IMG]kadens2012-1024x680.png2021-02-09 10:20 336K 
[IMG]kadens2012.png2021-02-09 10:20 539K 
[IMG]kadens2013-150x150.png2021-02-09 10:20 15K 
[IMG]kadens2013-300x199.png2021-02-09 10:20 42K 
[IMG]kadens2013-1024x680.png2021-02-09 10:20 337K 
[IMG]kadens2013.png2021-02-09 10:20 590K 
[IMG]ll2012-150x150.png2021-02-09 10:20 25K 
[IMG]ll2012-300x169.png2021-02-09 10:20 52K 
[IMG]ll2012.png2021-02-09 10:20 99K 
[IMG]ll2013-150x150.png2021-02-09 10:20 28K 
[IMG]ll2013-300x178.png2021-02-09 10:20 64K 
[IMG]ll2013.png2021-02-09 10:20 118K 
[IMG]maran2-150x150.png2021-02-09 10:20 45K 
[IMG]maran2-262x300.png2021-02-09 10:20 139K 
[IMG]maran2.png2021-02-09 10:20 463K 
[IMG]puls2012-150x150.png2021-02-09 10:20 14K 
[IMG]puls2012-300x199.png2021-02-09 10:20 38K 
[IMG]puls2012-1024x680.png2021-02-09 10:20 323K 
[IMG]puls2012.png2021-02-09 10:20 536K 
[IMG]puls2013-150x150.png2021-02-09 10:20 14K 
[IMG]puls2013-300x199.png2021-02-09 10:20 37K 
[IMG]puls2013-1024x680.png2021-02-09 10:20 314K 
[IMG]puls2013.png2021-02-09 10:20 452K 
[IMG]tempo2012-150x150.png2021-02-09 10:20 14K 
[IMG]tempo2012-300x199.png2021-02-09 10:20 39K 
[IMG]tempo2012-1024x680.png2021-02-09 10:20 306K 
[IMG]tempo2012.png2021-02-09 10:20 650K 
[IMG]tempo2013-150x150.png2021-02-09 10:20 16K 
[IMG]tempo2013-300x199.png2021-02-09 10:20 42K 
[IMG]tempo2013-1024x680.png2021-02-09 10:20 329K 
[IMG]tempo2013.png2021-02-09 10:20 767K 
[IMG]testresultat-150x150.png2021-02-09 10:20 23K 
[IMG]testresultat-212x300.png2021-02-09 10:20 59K 
[IMG]testresultat-724x1024.png2021-02-09 10:20 509K 
[IMG]testresultat.png2021-02-09 10:20 394K 

Apache/2.4.46 (Ubuntu) Server at nat0.net Port 443